sensor_id;sensor_type;location;lat;lon;timestamp;pressure;altitude;pressure_sealevel;temperature
51693;BMP280;37777;53.066;21.638;2023-07-24T00:04:01;99771.53;;;18.85
51693;BMP280;37777;53.066;21.638;2023-07-24T00:11:07;99744.44;;;19.11
51693;BMP280;37777;53.066;21.638;2023-07-24T00:18:09;99739.25;;;19.17
51693;BMP280;37777;53.066;21.638;2023-07-24T00:32:20;99706.34;;;18.97
51693;BMP280;37777;53.066;21.638;2023-07-24T00:39:23;99703.47;;;19.04
51693;BMP280;37777;53.066;21.638;2023-07-24T00:46:25;99704.72;;;18.99
51693;BMP280;37777;53.066;21.638;2023-07-24T00:53:27;99696.59;;;18.96
51693;BMP280;37777;53.066;21.638;2023-07-24T01:00:30;99699.72;;;18.94
51693;BMP280;37777;53.066;21.638;2023-07-24T01:07:32;99694.69;;;18.93
51693;BMP280;37777;53.066;21.638;2023-07-24T01:14:43;99683.28;;;18.74
51693;BMP280;37777;53.066;21.638;2023-07-24T01:29:35;99682.13;;;18.72
51693;BMP280;37777;53.066;21.638;2023-07-24T01:36:37;99669.84;;;18.60
51693;BMP280;37777;53.066;21.638;2023-07-24T01:43:39;99676.59;;;18.55
51693;BMP280;37777;53.066;21.638;2023-07-24T01:50:41;99679.56;;;18.41
51693;BMP280;37777;53.066;21.638;2023-07-24T01:57:43;99667.34;;;17.98
51693;BMP280;37777;53.066;21.638;2023-07-24T02:04:46;99689.28;;;17.95
51693;BMP280;37777;53.066;21.638;2023-07-24T02:11:48;99681.53;;;17.89
51693;BMP280;37777;53.066;21.638;2023-07-24T02:18:50;99658.16;;;17.85
51693;BMP280;37777;53.066;21.638;2023-07-24T02:25:52;99672.41;;;17.73
51693;BMP280;37777;53.066;21.638;2023-07-24T02:32:55;99675.28;;;17.62
51693;BMP280;37777;53.066;21.638;2023-07-24T02:39:58;99672.78;;;17.47
51693;BMP280;37777;53.066;21.638;2023-07-24T02:47:01;99672.53;;;17.35
51693;BMP280;37777;53.066;21.638;2023-07-24T02:54:03;99667.63;;;17.19
51693;BMP280;37777;53.066;21.638;2023-07-24T03:01:06;99661.50;;;17.11
51693;BMP280;37777;53.066;21.638;2023-07-24T03:08:08;99670.78;;;17.17
51693;BMP280;37777;53.066;21.638;2023-07-24T03:15:10;99673.34;;;17.31
51693;BMP280;37777;53.066;21.638;2023-07-24T03:22:13;99678.88;;;17.55
51693;BMP280;37777;53.066;21.638;2023-07-24T03:29:15;99682.06;;;17.81
51693;BMP280;37777;53.066;21.638;2023-07-24T03:36:17;99682.22;;;17.97
51693;BMP280;37777;53.066;21.638;2023-07-24T03:43:19;99672.19;;;18.14
51693;BMP280;37777;53.066;21.638;2023-07-24T03:50:21;99679.22;;;18.39
51693;BMP280;37777;53.066;21.638;2023-07-24T03:57:23;99682.31;;;18.61
51693;BMP280;37777;53.066;21.638;2023-07-24T04:04:25;99678.81;;;18.84
51693;BMP280;37777;53.066;21.638;2023-07-24T04:11:28;99669.09;;;18.79
51693;BMP280;37777;53.066;21.638;2023-07-24T04:18:30;99665.13;;;18.84
51693;BMP280;37777;53.066;21.638;2023-07-24T04:25:32;99675.50;;;18.93
51693;BMP280;37777;53.066;21.638;2023-07-24T04:32:34;99683.94;;;19.02
51693;BMP280;37777;53.066;21.638;2023-07-24T04:39:38;99690.81;;;19.10
51693;BMP280;37777;53.066;21.638;2023-07-24T04:46:40;99681.69;;;19.17
51693;BMP280;37777;53.066;21.638;2023-07-24T04:53:43;99698.41;;;19.22
51693;BMP280;37777;53.066;21.638;2023-07-24T05:00:45;99687.63;;;19.32
51693;BMP280;37777;53.066;21.638;2023-07-24T05:07:47;99699.84;;;19.47
51693;BMP280;37777;53.066;21.638;2023-07-24T05:14:49;99695.03;;;19.51
51693;BMP280;37777;53.066;21.638;2023-07-24T05:21:51;99710.03;;;19.83
51693;BMP280;37777;53.066;21.638;2023-07-24T05:28:53;99711.50;;;20.04
51693;BMP280;37777;53.066;21.638;2023-07-24T05:36:00;99717.28;;;20.10
51693;BMP280;37777;53.066;21.638;2023-07-24T05:43:02;99716.66;;;20.18
51693;BMP280;37777;53.066;21.638;2023-07-24T05:50:05;99710.06;;;20.16
51693;BMP280;37777;53.066;21.638;2023-07-24T05:57:08;99731.84;;;20.23
51693;BMP280;37777;53.066;21.638;2023-07-24T06:04:10;99723.59;;;20.39
51693;BMP280;37777;53.066;21.638;2023-07-24T06:11:13;99711.06;;;20.55
51693;BMP280;37777;53.066;21.638;2023-07-24T06:18:15;99714.94;;;20.70
51693;BMP280;37777;53.066;21.638;2023-07-24T06:25:17;99694.50;;;20.71
51693;BMP280;37777;53.066;21.638;2023-07-24T06:32:19;99708.75;;;20.95
51693;BMP280;37777;53.066;21.638;2023-07-24T06:39:21;99707.75;;;21.02
51693;BMP280;37777;53.066;21.638;2023-07-24T06:46:23;99709.50;;;21.25
51693;BMP280;37777;53.066;21.638;2023-07-24T06:53:25;99719.97;;;21.43
51693;BMP280;37777;53.066;21.638;2023-07-24T07:00:27;99710.84;;;21.46
51693;BMP280;37777;53.066;21.638;2023-07-24T07:07:29;99707.16;;;21.24
51693;BMP280;37777;53.066;21.638;2023-07-24T07:14:32;99713.41;;;21.11
51693;BMP280;37777;53.066;21.638;2023-07-24T07:21:33;99725.75;;;21.19
51693;BMP280;37777;53.066;21.638;2023-07-24T07:28:35;99718.84;;;21.28
51693;BMP280;37777;53.066;21.638;2023-07-24T07:35:39;99716.41;;;21.30
51693;BMP280;37777;53.066;21.638;2023-07-24T07:42:44;99732.25;;;21.26
51693;BMP280;37777;53.066;21.638;2023-07-24T07:49:47;99743.25;;;21.13
51693;BMP280;37777;53.066;21.638;2023-07-24T07:56:49;99753.59;;;21.22
51693;BMP280;37777;53.066;21.638;2023-07-24T08:03:51;99763.50;;;21.32
51693;BMP280;37777;53.066;21.638;2023-07-24T08:10:53;99770.56;;;21.46
51693;BMP280;37777;53.066;21.638;2023-07-24T08:17:55;99773.03;;;21.44
51693;BMP280;37777;53.066;21.638;2023-07-24T08:24:57;99768.06;;;21.38
51693;BMP280;37777;53.066;21.638;2023-07-24T08:31:59;99771.47;;;21.43
51693;BMP280;37777;53.066;21.638;2023-07-24T08:39:02;99790.50;;;21.37
51693;BMP280;37777;53.066;21.638;2023-07-24T08:46:04;99805.69;;;21.42
51693;BMP280;37777;53.066;21.638;2023-07-24T08:53:08;99794.50;;;21.19
51693;BMP280;37777;53.066;21.638;2023-07-24T09:00:11;99800.25;;;20.96
51693;BMP280;37777;53.066;21.638;2023-07-24T09:07:13;99788.63;;;20.75
51693;BMP280;37777;53.066;21.638;2023-07-24T09:14:26;99783.38;;;20.81
51693;BMP280;37777;53.066;21.638;2023-07-24T09:21:32;99781.69;;;21.00
51693;BMP280;37777;53.066;21.638;2023-07-24T09:28:35;99759.75;;;21.26
51693;BMP280;37777;53.066;21.638;2023-07-24T09:35:38;99745.28;;;21.51
51693;BMP280;37777;53.066;21.638;2023-07-24T09:42:44;99733.84;;;21.78
51693;BMP280;37777;53.066;21.638;2023-07-24T09:50:06;99746.13;;;22.12
51693;BMP280;37777;53.066;21.638;2023-07-24T09:57:09;99735.53;;;22.58
51693;BMP280;37777;53.066;21.638;2023-07-24T10:04:22;99728.09;;;22.90
51693;BMP280;37777;53.066;21.638;2023-07-24T10:11:26;99722.78;;;22.73
51693;BMP280;37777;53.066;21.638;2023-07-24T10:18:29;99707.44;;;22.72
51693;BMP280;37777;53.066;21.638;2023-07-24T10:25:33;99713.28;;;22.96
51693;BMP280;37777;53.066;21.638;2023-07-24T10:32:45;99718.19;;;23.24
51693;BMP280;37777;53.066;21.638;2023-07-24T10:39:50;99696.66;;;23.41
51693;BMP280;37777;53.066;21.638;2023-07-24T10:46:52;99693.53;;;23.79
51693;BMP280;37777;53.066;21.638;2023-07-24T10:53:54;99692.94;;;23.84
51693;BMP280;37777;53.066;21.638;2023-07-24T11:00:57;99669.00;;;24.36
51693;BMP280;37777;53.066;21.638;2023-07-24T11:08:00;99643.13;;;24.76
51693;BMP280;37777;53.066;21.638;2023-07-24T11:15:02;99642.25;;;24.61
51693;BMP280;37777;53.066;21.638;2023-07-24T11:22:05;99639.69;;;24.81
51693;BMP280;37777;53.066;21.638;2023-07-24T11:29:11;99639.09;;;24.87
51693;BMP280;37777;53.066;21.638;2023-07-24T11:36:14;99632.34;;;24.78
51693;BMP280;37777;53.066;21.638;2023-07-24T11:43:22;99643.84;;;24.86
51693;BMP280;37777;53.066;21.638;2023-07-24T11:50:24;99629.84;;;24.90
51693;BMP280;37777;53.066;21.638;2023-07-24T11:57:27;99608.28;;;25.03
51693;BMP280;37777;53.066;21.638;2023-07-24T12:04:31;99616.13;;;25.29
51693;BMP280;37777;53.066;21.638;2023-07-24T12:11:39;99610.53;;;26.01
51693;BMP280;37777;53.066;21.638;2023-07-24T12:18:46;99596.44;;;25.90
51693;BMP280;37777;53.066;21.638;2023-07-24T12:25:48;99607.69;;;25.86
51693;BMP280;37777;53.066;21.638;2023-07-24T12:32:50;99599.44;;;26.01
51693;BMP280;37777;53.066;21.638;2023-07-24T12:39:52;99591.22;;;26.07
51693;BMP280;37777;53.066;21.638;2023-07-24T12:46:54;99572.41;;;25.81
51693;BMP280;37777;53.066;21.638;2023-07-24T12:53:56;99570.47;;;25.87
51693;BMP280;37777;53.066;21.638;2023-07-24T13:01:18;99561.72;;;26.69
51693;BMP280;37777;53.066;21.638;2023-07-24T13:08:20;99555.41;;;27.09
51693;BMP280;37777;53.066;21.638;2023-07-24T13:15:24;99557.00;;;27.16
51693;BMP280;37777;53.066;21.638;2023-07-24T13:22:26;99544.09;;;26.72
51693;BMP280;37777;53.066;21.638;2023-07-24T13:29:30;99535.56;;;26.40
51693;BMP280;37777;53.066;21.638;2023-07-24T13:36:33;99525.59;;;26.48
51693;BMP280;37777;53.066;21.638;2023-07-24T13:43:36;99511.72;;;26.63
51693;BMP280;37777;53.066;21.638;2023-07-24T13:50:38;99499.25;;;26.38
51693;BMP280;37777;53.066;21.638;2023-07-24T13:57:41;99484.28;;;26.15
51693;BMP280;37777;53.066;21.638;2023-07-24T14:04:43;99466.06;;;26.08
51693;BMP280;37777;53.066;21.638;2023-07-24T14:11:45;99461.06;;;26.12
51693;BMP280;37777;53.066;21.638;2023-07-24T14:18:48;99457.44;;;26.21
51693;BMP280;37777;53.066;21.638;2023-07-24T14:25:50;99440.94;;;26.12
51693;BMP280;37777;53.066;21.638;2023-07-24T14:32:52;99442.16;;;26.11
51693;BMP280;37777;53.066;21.638;2023-07-24T14:39:55;99412.47;;;26.32
51693;BMP280;37777;53.066;21.638;2023-07-24T14:46:57;99404.13;;;26.67
51693;BMP280;37777;53.066;21.638;2023-07-24T14:54:00;99388.69;;;26.86
51693;BMP280;37777;53.066;21.638;2023-07-24T15:01:02;99370.16;;;26.72
51693;BMP280;37777;53.066;21.638;2023-07-24T15:08:05;99374.41;;;26.73
51693;BMP280;37777;53.066;21.638;2023-07-24T15:15:08;99367.91;;;26.76
51693;BMP280;37777;53.066;21.638;2023-07-24T15:22:11;99359.34;;;27.00
51693;BMP280;37777;53.066;21.638;2023-07-24T15:29:13;99337.34;;;27.23
51693;BMP280;37777;53.066;21.638;2023-07-24T15:36:20;99327.88;;;27.41
51693;BMP280;37777;53.066;21.638;2023-07-24T15:43:23;99323.38;;;27.92
51693;BMP280;37777;53.066;21.638;2023-07-24T15:50:26;99310.56;;;27.52
51693;BMP280;37777;53.066;21.638;2023-07-24T15:57:28;99298.09;;;27.41
51693;BMP280;37777;53.066;21.638;2023-07-24T16:04:31;99297.78;;;27.28
51693;BMP280;37777;53.066;21.638;2023-07-24T16:11:33;99291.78;;;27.09
51693;BMP280;37777;53.066;21.638;2023-07-24T16:18:35;99275.81;;;26.98
51693;BMP280;37777;53.066;21.638;2023-07-24T16:25:38;99259.63;;;26.91
51693;BMP280;37777;53.066;21.638;2023-07-24T16:32:40;99264.09;;;26.83
51693;BMP280;37777;53.066;21.638;2023-07-24T16:39:48;99243.38;;;26.78
51693;BMP280;37777;53.066;21.638;2023-07-24T16:46:51;99235.88;;;26.84
51693;BMP280;37777;53.066;21.638;2023-07-24T16:54:12;99223.22;;;26.83
51693;BMP280;37777;53.066;21.638;2023-07-24T17:01:14;99210.75;;;26.67
51693;BMP280;37777;53.066;21.638;2023-07-24T17:08:16;99201.06;;;26.57
51693;BMP280;37777;53.066;21.638;2023-07-24T17:15:19;99193.06;;;26.97
51693;BMP280;37777;53.066;21.638;2023-07-24T17:22:21;99181.75;;;26.95
51693;BMP280;37777;53.066;21.638;2023-07-24T17:29:24;99174.81;;;27.16
51693;BMP280;37777;53.066;21.638;2023-07-24T17:36:26;99169.34;;;26.96
51693;BMP280;37777;53.066;21.638;2023-07-24T17:43:29;99162.66;;;26.44
51693;BMP280;37777;53.066;21.638;2023-07-24T17:50:34;99169.38;;;26.12
51693;BMP280;37777;53.066;21.638;2023-07-24T17:57:37;99172.84;;;25.86
51693;BMP280;37777;53.066;21.638;2023-07-24T18:04:40;99167.47;;;25.56
51693;BMP280;37777;53.066;21.638;2023-07-24T18:11:43;99178.00;;;25.37
51693;BMP280;37777;53.066;21.638;2023-07-24T18:18:45;99183.22;;;25.15
51693;BMP280;37777;53.066;21.638;2023-07-24T18:25:48;99183.22;;;25.00
51693;BMP280;37777;53.066;21.638;2023-07-24T18:32:51;99173.91;;;24.83
51693;BMP280;37777;53.066;21.638;2023-07-24T18:39:53;99185.25;;;24.70
51693;BMP280;37777;53.066;21.638;2023-07-24T18:46:56;99185.88;;;24.50
51693;BMP280;37777;53.066;21.638;2023-07-24T18:54:00;99189.84;;;24.34
51693;BMP280;37777;53.066;21.638;2023-07-24T19:01:03;99190.06;;;24.30
51693;BMP280;37777;53.066;21.638;2023-07-24T19:08:10;99162.97;;;24.19
51693;BMP280;37777;53.066;21.638;2023-07-24T19:15:13;99150.78;;;24.11
51693;BMP280;37777;53.066;21.638;2023-07-24T19:22:15;99148.19;;;24.08
51693;BMP280;37777;53.066;21.638;2023-07-24T19:29:18;99125.72;;;24.00
51693;BMP280;37777;53.066;21.638;2023-07-24T19:36:22;99124.41;;;23.86
51693;BMP280;37777;53.066;21.638;2023-07-24T19:43:24;99102.38;;;23.77
51693;BMP280;37777;53.066;21.638;2023-07-24T19:50:27;99095.59;;;23.63
51693;BMP280;37777;53.066;21.638;2023-07-24T19:57:29;99086.91;;;23.55
51693;BMP280;37777;53.066;21.638;2023-07-24T20:04:31;99095.19;;;23.55
51693;BMP280;37777;53.066;21.638;2023-07-24T20:11:34;99079.72;;;23.49
51693;BMP280;37777;53.066;21.638;2023-07-24T20:18:36;99068.28;;;23.41
51693;BMP280;37777;53.066;21.638;2023-07-24T20:25:40;99080.13;;;23.32
51693;BMP280;37777;53.066;21.638;2023-07-24T20:32:43;99071.63;;;23.21
51693;BMP280;37777;53.066;21.638;2023-07-24T20:39:46;99067.06;;;23.18
51693;BMP280;37777;53.066;21.638;2023-07-24T20:46:50;99051.59;;;23.11
51693;BMP280;37777;53.066;21.638;2023-07-24T20:53:53;99051.97;;;22.95
51693;BMP280;37777;53.066;21.638;2023-07-24T21:01:00;99046.75;;;22.97
51693;BMP280;37777;53.066;21.638;2023-07-24T21:08:04;99055.06;;;22.88
51693;BMP280;37777;53.066;21.638;2023-07-24T21:15:08;99048.56;;;22.76
51693;BMP280;37777;53.066;21.638;2023-07-24T21:22:11;99027.56;;;22.78
51693;BMP280;37777;53.066;21.638;2023-07-24T21:29:16;99038.44;;;22.73
51693;BMP280;37777;53.066;21.638;2023-07-24T21:36:18;99029.56;;;22.69
51693;BMP280;37777;53.066;21.638;2023-07-24T21:43:21;99023.78;;;22.67
51693;BMP280;37777;53.066;21.638;2023-07-24T21:50:23;99035.03;;;22.78
51693;BMP280;37777;53.066;21.638;2023-07-24T21:57:26;99036.88;;;22.81
51693;BMP280;37777;53.066;21.638;2023-07-24T22:04:28;99035.59;;;22.91
51693;BMP280;37777;53.066;21.638;2023-07-24T22:11:30;99042.16;;;22.94
51693;BMP280;37777;53.066;21.638;2023-07-24T22:18:34;99031.28;;;22.99
51693;BMP280;37777;53.066;21.638;2023-07-24T22:25:36;99021.50;;;22.98
51693;BMP280;37777;53.066;21.638;2023-07-24T22:32:40;99028.03;;;23.10
51693;BMP280;37777;53.066;21.638;2023-07-24T22:39:42;99011.34;;;23.05
51693;BMP280;37777;53.066;21.638;2023-07-24T22:46:44;98999.88;;;23.06
51693;BMP280;37777;53.066;21.638;2023-07-24T22:53:47;99011.66;;;23.07
51693;BMP280;37777;53.066;21.638;2023-07-24T23:00:49;99012.88;;;23.06
51693;BMP280;37777;53.066;21.638;2023-07-24T23:07:51;99001.41;;;22.98
51693;BMP280;37777;53.066;21.638;2023-07-24T23:14:56;98998.06;;;22.94
51693;BMP280;37777;53.066;21.638;2023-07-24T23:29:00;98963.72;;;22.71
51693;BMP280;37777;53.066;21.638;2023-07-24T23:36:04;98947.06;;;22.65
51693;BMP280;37777;53.066;21.638;2023-07-24T23:43:08;98937.16;;;22.58
51693;BMP280;37777;53.066;21.638;2023-07-24T23:50:10;98919.72;;;22.52
51693;BMP280;37777;53.066;21.638;2023-07-24T23:57:12;98920.53;;;22.44
